createdAt,value
2018-01-16T00:00:26.266Z,8.30
2018-01-16T00:02:53.848Z,8.30
2018-01-16T00:05:21.404Z,8.40
2018-01-16T00:07:48.997Z,8.30
2018-01-16T00:10:16.554Z,8.30
2018-01-16T00:12:44.145Z,8.30
2018-01-16T00:15:11.711Z,8.20
2018-01-16T00:17:39.297Z,8.20
2018-01-16T00:20:06.857Z,8.30
2018-01-16T00:22:41.156Z,8.30
2018-01-16T00:25:08.712Z,8.30
2018-01-16T00:27:36.298Z,8.20
2018-01-16T00:30:04.632Z,8.30
2018-01-16T00:32:32.221Z,8.30
2018-01-16T00:35:00.549Z,8.30
2018-01-16T00:37:28.137Z,8.30
2018-01-16T00:39:55.701Z,8.30
2018-01-16T00:42:23.283Z,8.30
2018-01-16T00:44:51.615Z,8.20
2018-01-16T00:47:19.202Z,8.20
2018-01-16T00:49:46.769Z,8.30
2018-01-16T00:52:15.125Z,8.30
2018-01-16T00:54:42.695Z,8.30
2018-01-16T00:57:10.286Z,8.40
2018-01-16T00:59:37.852Z,8.30
2018-01-16T01:02:05.418Z,8.30
2018-01-16T01:04:33.006Z,8.40
2018-01-16T01:07:00.565Z,8.30
2018-01-16T01:09:28.153Z,8.30
2018-01-16T01:11:56.486Z,8.40
2018-01-16T01:14:24.068Z,8.40
2018-01-16T01:16:51.630Z,8.30
2018-01-16T01:19:19.217Z,8.30
2018-01-16T01:21:46.783Z,8.30
2018-01-16T01:24:15.136Z,8.40
2018-01-16T01:26:42.693Z,8.40
2018-01-16T01:29:10.278Z,8.40
2018-01-16T01:31:37.846Z,8.30
2018-01-16T01:34:05.433Z,8.30
2018-01-16T01:36:32.996Z,8.30
2018-01-16T01:39:00.577Z,8.30
2018-01-16T01:41:28.137Z,8.30
2018-01-16T01:43:55.721Z,8.30
2018-01-16T01:46:24.049Z,8.40
2018-01-16T01:49:03.385Z,8.40
2018-01-16T01:51:30.945Z,8.40
2018-01-16T01:53:58.527Z,8.30
2018-01-16T01:56:26.084Z,8.40
2018-01-16T01:58:53.665Z,8.40
2018-01-16T02:01:21.997Z,8.30
2018-01-16T02:03:49.582Z,8.30
2018-01-16T02:06:17.140Z,8.30
2018-01-16T02:08:44.721Z,8.30
2018-01-16T02:11:13.050Z,8.30
2018-01-16T02:13:40.633Z,8.30
2018-01-16T02:16:08.201Z,8.30
2018-01-16T02:18:35.791Z,8.30
2018-01-16T02:21:03.353Z,8.30
2018-01-16T02:23:30.916Z,8.30
2018-01-16T02:25:58.521Z,8.30
2018-01-16T02:28:26.085Z,8.30
2018-01-16T02:30:53.673Z,8.40
2018-01-16T02:33:22.000Z,8.40
2018-01-16T02:35:49.580Z,8.40
2018-01-16T02:38:17.146Z,8.40
2018-01-16T02:40:44.732Z,8.40
2018-01-16T02:43:20.926Z,8.40
2018-01-16T02:45:48.509Z,8.30
2018-01-16T02:48:16.069Z,8.40
2018-01-16T02:50:43.656Z,8.30
2018-01-16T02:53:11.222Z,8.40
2018-01-16T02:55:39.570Z,8.30
2018-01-16T02:58:07.124Z,8.30
2018-01-16T03:00:34.709Z,8.30
2018-01-16T03:03:03.042Z,8.30
2018-01-16T03:05:30.631Z,8.20
2018-01-16T03:07:58.191Z,8.30
2018-01-16T03:10:25.773Z,8.30
2018-01-16T03:12:54.105Z,8.30
2018-01-16T03:15:21.697Z,8.30
2018-01-16T03:17:49.257Z,8.40
2018-01-16T03:20:16.843Z,8.40
2018-01-16T03:22:44.415Z,8.40
2018-01-16T03:25:11.997Z,8.50
2018-01-16T03:27:39.561Z,8.40
2018-01-16T03:30:07.148Z,8.50
2018-01-16T03:32:34.717Z,8.50
2018-01-16T03:35:03.068Z,8.60
2018-01-16T03:37:30.629Z,8.60
2018-01-16T03:39:58.209Z,8.60
2018-01-16T03:42:25.779Z,8.60
2018-01-16T03:44:54.131Z,8.60
2018-01-16T03:47:21.697Z,8.60
2018-01-16T03:49:50.038Z,8.60
2018-01-16T03:52:17.633Z,8.60
2018-01-16T03:54:45.197Z,8.60
2018-01-16T03:57:12.781Z,8.60
2018-01-16T03:59:40.341Z,8.70
2018-01-16T04:02:07.921Z,8.70
2018-01-16T04:04:36.252Z,8.70
2018-01-16T04:07:03.837Z,8.70
2018-01-16T04:09:31.393Z,8.70
2018-01-16T04:11:58.973Z,8.70
2018-01-16T04:14:26.533Z,8.70
2018-01-16T04:16:54.112Z,8.60
2018-01-16T04:19:21.672Z,8.60
2018-01-16T04:21:49.253Z,8.60
2018-01-16T04:24:16.816Z,8.70
2018-01-16T04:26:44.401Z,8.60
2018-01-16T04:29:11.965Z,8.60
2018-01-16T04:31:39.557Z,8.60
2018-01-16T04:34:07.121Z,8.60
2018-01-16T04:36:34.715Z,8.60
2018-01-16T04:39:03.044Z,8.60
2018-01-16T04:41:30.625Z,8.60
2018-01-16T04:43:58.185Z,8.60
2018-01-16T04:46:25.774Z,8.60
2018-01-16T04:48:54.104Z,8.60
2018-01-16T04:51:21.688Z,8.60
2018-01-16T04:53:49.246Z,8.60
2018-01-16T04:56:16.833Z,8.60
2018-01-16T04:58:44.401Z,8.60
2018-01-16T05:01:12.725Z,8.40
2018-01-16T05:03:40.314Z,8.40
2018-01-16T05:06:07.876Z,8.50
2018-01-16T05:08:36.229Z,8.50
2018-01-16T05:11:03.805Z,8.50
2018-01-16T05:13:31.389Z,8.50
2018-01-16T05:15:58.953Z,8.50
2018-01-16T05:18:26.556Z,8.50
2018-01-16T05:20:54.121Z,8.50
2018-01-16T05:23:21.717Z,8.50
2018-01-16T05:25:50.050Z,8.60
2018-01-16T05:28:17.640Z,8.60
2018-01-16T05:30:45.201Z,8.50
2018-01-16T05:33:12.782Z,8.50
2018-01-16T05:35:41.117Z,8.50
2018-01-16T05:38:08.710Z,8.60
2018-01-16T05:40:37.056Z,8.50
2018-01-16T05:43:04.637Z,8.50
2018-01-16T05:45:32.965Z,8.50
2018-01-16T05:48:00.567Z,8.40
2018-01-16T05:50:28.129Z,8.50
2018-01-16T05:52:55.717Z,8.50
2018-01-16T05:55:23.272Z,8.50
2018-01-16T05:57:50.853Z,8.50
2018-01-16T06:00:18.422Z,8.50
2018-01-16T06:02:46.008Z,8.60
2018-01-16T06:05:13.575Z,8.60
2018-01-16T06:07:41.161Z,8.60
2018-01-16T06:10:08.725Z,8.50
2018-01-16T06:12:36.309Z,8.60
2018-01-16T06:15:03.869Z,8.60
2018-01-16T06:17:31.430Z,8.60
2018-01-16T06:19:59.014Z,8.60
2018-01-16T06:22:26.576Z,8.60
2018-01-16T06:24:54.165Z,8.60
2018-01-16T06:27:21.722Z,8.50
2018-01-16T06:29:50.069Z,8.50
2018-01-16T06:32:17.632Z,8.50
2018-01-16T06:34:45.214Z,8.60
2018-01-16T06:37:12.777Z,8.50
2018-01-16T06:39:41.120Z,8.60
2018-01-16T06:42:08.681Z,8.60
2018-01-16T06:44:36.266Z,8.60
2018-01-16T06:47:03.828Z,8.60
2018-01-16T06:49:32.181Z,8.60
2018-01-16T06:51:59.741Z,8.60
2018-01-16T06:54:27.325Z,8.60
2018-01-16T06:56:54.884Z,8.60
2018-01-16T06:59:23.236Z,8.60
2018-01-16T07:01:51.298Z,8.60
2018-01-16T07:04:18.928Z,8.70
2018-01-16T07:06:46.492Z,8.60
2018-01-16T07:09:14.073Z,8.60
2018-01-16T07:11:41.638Z,8.70
2018-01-16T07:14:09.220Z,8.70
2018-01-16T07:16:37.549Z,8.70
2018-01-16T07:19:05.128Z,8.70
2018-01-16T07:21:32.686Z,8.70
2018-01-16T07:24:01.038Z,8.70
2018-01-16T07:26:28.604Z,8.70
2018-01-16T07:28:56.182Z,8.70
2018-01-16T07:31:23.770Z,8.70
2018-01-16T07:33:51.343Z,8.60
2018-01-16T07:36:19.713Z,8.70
2018-01-16T07:38:48.124Z,8.60
2018-01-16T07:41:18.000Z,8.60
2018-01-16T07:43:46.328Z,8.60
2018-01-16T07:46:13.913Z,8.60
2018-01-16T07:48:41.482Z,8.50
2018-01-16T07:51:09.079Z,8.60
2018-01-16T07:53:36.645Z,8.60
2018-01-16T07:56:04.229Z,8.50
2018-01-16T07:58:31.794Z,8.50
2018-01-16T08:00:59.404Z,8.50
2018-01-16T08:03:27.723Z,8.50
2018-01-16T08:05:55.306Z,8.50
2018-01-16T08:08:22.949Z,8.40
2018-01-16T08:10:50.544Z,8.40
2018-01-16T08:13:18.872Z,8.40
2018-01-16T08:15:46.452Z,8.40
2018-01-16T08:18:14.017Z,8.30
2018-01-16T08:20:41.600Z,8.40
2018-01-16T08:23:09.922Z,8.50
2018-01-16T08:25:37.499Z,8.50
2018-01-16T08:28:05.061Z,8.50
2018-01-16T08:30:32.641Z,8.50
2018-01-16T08:33:00.972Z,8.50
2018-01-16T08:35:28.560Z,8.50
2018-01-16T08:37:56.124Z,8.50
2018-01-16T08:40:23.686Z,8.50
2018-01-16T08:42:51.268Z,8.50
2018-01-16T08:45:19.597Z,8.60
2018-01-16T08:47:47.187Z,8.50
2018-01-16T08:50:14.749Z,8.60
2018-01-16T08:52:42.332Z,8.60
2018-01-16T08:55:09.889Z,8.60
2018-01-16T08:57:37.478Z,8.60
2018-01-16T09:00:05.038Z,8.60
2018-01-16T09:02:32.616Z,8.60
2018-01-16T09:05:00.177Z,8.60
2018-01-16T09:07:27.770Z,8.60
2018-01-16T09:09:56.422Z,8.60
2018-01-16T09:12:24.013Z,8.60
2018-01-16T09:14:52.343Z,8.60
2018-01-16T09:17:19.923Z,8.60
2018-01-16T09:19:47.497Z,8.60
2018-01-16T09:22:15.077Z,8.60
2018-01-16T09:24:43.410Z,8.60
2018-01-16T09:27:11.003Z,8.70
2018-01-16T09:29:38.571Z,8.70
2018-01-16T09:32:06.180Z,8.70
2018-01-16T09:34:33.744Z,8.70
2018-01-16T09:37:02.103Z,8.80
2018-01-16T09:39:29.677Z,8.80
2018-01-16T09:41:57.267Z,8.80
2018-01-16T09:44:24.825Z,8.90
2018-01-16T09:46:52.410Z,8.80
2018-01-16T09:49:19.965Z,8.80
2018-01-16T09:51:47.562Z,8.90
2018-01-16T09:54:15.123Z,8.90
2018-01-16T09:56:42.688Z,8.80
2018-01-16T09:59:10.273Z,8.90
2018-01-16T10:01:37.833Z,8.90
2018-01-16T10:04:05.416Z,8.90
2018-01-16T10:06:32.985Z,8.90
2018-01-16T10:09:00.573Z,8.90
2018-01-16T10:11:28.128Z,8.90
2018-01-16T10:13:55.710Z,9.00
2018-01-16T10:16:23.270Z,9.00
2018-01-16T10:18:50.857Z,9.00
2018-01-16T10:21:19.193Z,9.00
2018-01-16T10:23:46.776Z,9.00
2018-01-16T10:26:14.342Z,9.00
2018-01-16T10:28:42.006Z,8.90
2018-01-16T10:31:09.573Z,8.90
2018-01-16T10:33:37.162Z,9.00
2018-01-16T10:36:04.729Z,8.90
2018-01-16T10:38:32.321Z,8.80
2018-01-16T10:40:59.888Z,8.90
2018-01-16T10:43:27.469Z,8.90
2018-01-16T10:45:55.029Z,8.90
2018-01-16T10:48:23.382Z,8.90
2018-01-16T10:50:51.724Z,8.90
2018-01-16T10:53:19.306Z,8.90
2018-01-16T10:55:46.861Z,8.90
2018-01-16T10:58:14.454Z,8.90
2018-01-16T11:00:42.792Z,8.90
2018-01-16T11:03:10.370Z,8.90
2018-01-16T11:05:37.937Z,8.90
2018-01-16T11:08:05.518Z,8.90
2018-01-16T11:10:33.853Z,8.90
2018-01-16T11:13:01.422Z,8.90
2018-01-16T11:15:29.010Z,8.90
2018-01-16T11:17:56.569Z,9.00
2018-01-16T11:20:24.925Z,8.90
2018-01-16T11:22:52.501Z,8.90
2018-01-16T11:25:20.087Z,8.90
2018-01-16T11:27:47.661Z,9.00
2018-01-16T11:30:15.251Z,9.10
2018-01-16T11:32:42.823Z,9.10
2018-01-16T11:35:11.011Z,9.00
2018-01-16T11:37:39.337Z,9.00
2018-01-16T11:40:06.950Z,9.00
2018-01-16T11:42:34.513Z,9.00
2018-01-16T11:45:02.945Z,9.00
2018-01-16T11:47:30.691Z,9.00
2018-01-16T11:49:59.607Z,9.10
2018-01-16T11:52:27.172Z,9.10
2018-01-16T11:54:54.761Z,9.00
2018-01-16T11:57:22.398Z,8.90
2018-01-16T11:59:49.991Z,8.80
2018-01-16T12:02:17.550Z,8.40
2018-01-16T12:04:45.901Z,7.90
2018-01-16T12:07:13.461Z,7.90
2018-01-16T12:09:41.037Z,8.00
2018-01-16T12:12:08.595Z,8.00
2018-01-16T12:14:36.943Z,8.00
2018-01-16T12:17:04.508Z,8.00
2018-01-16T12:19:32.137Z,7.80
2018-01-16T12:21:59.713Z,7.90
2018-01-16T12:24:27.276Z,7.90
2018-01-16T12:26:54.866Z,7.80
2018-01-16T12:29:23.201Z,7.70
2018-01-16T12:31:50.785Z,7.60
2018-01-16T12:34:20.887Z,7.70
2018-01-16T12:36:48.557Z,7.70
2018-01-16T12:39:17.737Z,7.80
2018-01-16T12:41:45.321Z,7.70
2018-01-16T12:44:12.885Z,7.70
2018-01-16T12:46:40.481Z,7.80
2018-01-16T12:49:08.048Z,7.80
2018-01-16T12:51:35.633Z,7.80
2018-01-16T12:54:03.198Z,7.80
2018-01-16T12:56:30.812Z,7.90
2018-01-16T12:58:58.376Z,7.90
2018-01-16T13:01:26.050Z,7.90
2018-01-16T13:03:53.620Z,8.00
2018-01-16T13:06:21.205Z,8.00
2018-01-16T13:08:48.771Z,8.00
2018-01-16T13:11:16.357Z,8.00
2018-01-16T13:13:44.689Z,7.90
2018-01-16T13:16:12.283Z,7.90
2018-01-16T13:18:40.614Z,8.10
2018-01-16T13:21:08.205Z,8.10
2018-01-16T13:23:36.508Z,8.10
2018-01-16T13:26:04.152Z,8.00
2018-01-16T13:28:32.480Z,8.00
2018-01-16T13:31:00.068Z,8.00
2018-01-16T13:33:27.676Z,8.00
2018-01-16T13:35:55.267Z,7.90
2018-01-16T13:38:22.833Z,7.90
2018-01-16T13:40:50.393Z,8.00
2018-01-16T13:43:18.018Z,7.90
2018-01-16T13:45:45.587Z,7.90
2018-01-16T13:48:13.168Z,7.90
2018-01-16T13:50:40.733Z,7.90
2018-01-16T13:53:08.340Z,7.90
2018-01-16T13:55:35.906Z,7.90
2018-01-16T13:58:03.526Z,7.90
2018-01-16T14:00:31.090Z,7.80
2018-01-16T14:02:58.668Z,7.90
2018-01-16T14:05:26.993Z,7.90
2018-01-16T14:07:54.573Z,7.90
2018-01-16T14:10:22.133Z,7.80
2018-01-16T14:12:49.774Z,7.80
2018-01-16T14:15:17.363Z,7.80
2018-01-16T14:17:44.954Z,7.70
2018-01-16T14:20:12.516Z,7.80
2018-01-16T14:22:40.104Z,7.80
2018-01-16T14:25:07.664Z,7.70
2018-01-16T14:27:35.245Z,7.80
2018-01-16T14:30:02.816Z,7.70
2018-01-16T14:32:30.397Z,7.60
2018-01-16T14:34:58.729Z,7.70
2018-01-16T14:37:26.317Z,7.60
2018-01-16T14:39:53.877Z,7.60
2018-01-16T14:42:22.236Z,7.60
2018-01-16T14:44:49.812Z,7.60
2018-01-16T14:47:17.410Z,7.60
2018-01-16T14:49:45.098Z,7.60
2018-01-16T14:52:12.689Z,7.60
2018-01-16T14:54:40.245Z,7.70
2018-01-16T14:57:07.800Z,7.60
2018-01-16T14:59:35.384Z,7.60
2018-01-16T15:02:02.952Z,7.50
2018-01-16T15:04:30.544Z,7.50
2018-01-16T15:06:58.105Z,7.50
2018-01-16T15:09:25.690Z,7.50
2018-01-16T15:11:53.261Z,7.50
2018-01-16T15:14:20.876Z,7.40
2018-01-16T15:16:48.478Z,7.50
2018-01-16T15:19:16.061Z,7.40
2018-01-16T15:21:44.394Z,7.40
2018-01-16T15:24:12.031Z,7.40
2018-01-16T15:26:39.584Z,7.40
2018-01-16T15:29:07.164Z,7.40
2018-01-16T15:31:34.732Z,7.30
2018-01-16T15:34:02.466Z,7.30
2018-01-16T15:36:30.030Z,7.40
2018-01-16T15:38:57.613Z,7.40
2018-01-16T15:41:25.182Z,7.40
2018-01-16T15:43:52.773Z,7.30
2018-01-16T15:46:21.105Z,7.40
2018-01-16T15:48:48.693Z,7.40
2018-01-16T15:51:17.117Z,7.30
2018-01-16T15:53:44.705Z,7.30
2018-01-16T15:56:13.033Z,7.20
2018-01-16T15:58:40.621Z,7.20
2018-01-16T16:01:08.182Z,7.10
2018-01-16T16:03:35.765Z,7.20
2018-01-16T16:06:03.330Z,7.20
2018-01-16T16:08:30.891Z,7.10
2018-01-16T16:10:58.473Z,7.20
2018-01-16T16:13:26.029Z,7.20
2018-01-16T16:15:54.373Z,7.20
2018-01-16T16:18:21.933Z,7.20
2018-01-16T16:20:49.513Z,7.20
2018-01-16T16:23:17.073Z,7.20
2018-01-16T16:25:45.426Z,7.10
2018-01-16T16:28:12.985Z,7.10
2018-01-16T16:30:40.569Z,7.10
2018-01-16T16:33:08.896Z,7.20
2018-01-16T16:35:36.476Z,7.20
2018-01-16T16:38:04.033Z,7.30
2018-01-16T16:40:31.622Z,7.20
2018-01-16T16:42:59.957Z,7.20
2018-01-16T16:45:27.545Z,7.10
2018-01-16T16:47:55.109Z,7.20
2018-01-16T16:50:22.702Z,7.30
2018-01-16T16:52:50.262Z,7.30
2018-01-16T16:55:17.850Z,7.20
2018-01-16T16:57:45.500Z,7.30
2018-01-16T17:00:13.080Z,7.20
2018-01-16T17:02:40.643Z,7.20
2018-01-16T17:05:08.237Z,7.30
2018-01-16T17:07:35.799Z,7.30
2018-01-16T17:10:04.154Z,7.40
2018-01-16T17:12:31.773Z,7.40
2018-01-16T17:14:59.352Z,7.40
2018-01-16T17:17:26.921Z,7.30
2018-01-16T17:19:54.514Z,7.30
2018-01-16T17:22:22.844Z,7.20
2018-01-16T17:24:50.400Z,7.20
2018-01-16T17:27:17.986Z,7.10
2018-01-16T17:29:45.561Z,7.10
2018-01-16T17:32:13.917Z,7.10
2018-01-16T17:34:41.486Z,7.10
2018-01-16T17:37:09.068Z,7.00
2018-01-16T17:39:37.397Z,7.10
2018-01-16T17:42:04.985Z,7.10
2018-01-16T17:44:32.573Z,7.10
2018-01-16T17:47:00.162Z,7.10
2018-01-16T17:49:27.721Z,7.10
2018-01-16T17:51:55.310Z,7.20
2018-01-16T17:54:22.898Z,7.10
2018-01-16T17:56:51.240Z,7.10
2018-01-16T17:59:18.801Z,7.10
2018-01-16T18:01:46.398Z,7.00
2018-01-16T18:04:14.720Z,7.00
2018-01-16T18:06:42.308Z,7.00
2018-01-16T18:09:09.865Z,7.10
2018-01-16T18:11:37.463Z,7.10
2018-01-16T18:14:06.266Z,7.00
2018-01-16T18:16:33.857Z,7.00
2018-01-16T18:19:02.240Z,7.00
2018-01-16T18:21:30.030Z,7.00
2018-01-16T18:23:58.353Z,6.80
2018-01-16T18:26:25.946Z,6.80
2018-01-16T18:28:53.518Z,6.80
2018-01-16T18:31:21.920Z,6.80
2018-01-16T18:33:49.493Z,6.80
2018-01-16T18:36:17.077Z,6.80
2018-01-16T18:38:44.641Z,6.80
2018-01-16T18:41:12.240Z,6.90
2018-01-16T18:43:39.797Z,6.90
2018-01-16T18:46:07.361Z,6.80
2018-01-16T18:48:35.714Z,6.90
2018-01-16T18:51:03.279Z,6.80
2018-01-16T18:53:30.868Z,6.80
2018-01-16T18:55:58.437Z,6.80
2018-01-16T18:58:26.024Z,6.70
2018-01-16T19:00:53.582Z,6.80
2018-01-16T19:03:21.176Z,6.80
2018-01-16T19:05:48.737Z,6.80
2018-01-16T19:08:16.333Z,6.70
2018-01-16T19:10:43.931Z,6.70
2018-01-16T19:13:11.513Z,6.70
2018-01-16T19:15:39.069Z,6.60
2018-01-16T19:18:06.649Z,6.60
2018-01-16T19:20:34.205Z,6.70
2018-01-16T19:23:02.560Z,6.50
2018-01-16T19:25:30.134Z,6.50
2018-01-16T19:27:57.721Z,6.50
2018-01-16T19:30:25.281Z,6.50
2018-01-16T19:32:52.865Z,6.60
2018-01-16T19:35:20.429Z,6.50
2018-01-16T19:37:48.018Z,6.40
2018-01-16T19:40:15.624Z,6.30
2018-01-16T19:42:43.206Z,6.40
2018-01-16T19:45:10.811Z,6.50
2018-01-16T19:47:38.442Z,6.50
2018-01-16T19:50:06.010Z,6.50
2018-01-16T19:52:33.619Z,6.30
2018-01-16T19:55:01.256Z,6.40
2018-01-16T19:57:29.586Z,6.30
2018-01-16T19:59:57.178Z,6.30
2018-01-16T20:02:25.516Z,6.30
2018-01-16T20:04:53.367Z,6.30
2018-01-16T20:09:55.689Z,6.10
2018-01-16T20:12:23.248Z,6.10
2018-01-16T20:14:50.829Z,6.10
2018-01-16T20:17:19.163Z,5.90
2018-01-16T20:19:47.222Z,5.90
2018-01-16T20:22:14.785Z,5.90
2018-01-16T20:24:44.000Z,5.80
2018-01-16T20:27:11.629Z,5.80
2018-01-16T20:29:39.264Z,5.70
2018-01-16T20:32:07.643Z,5.70
2018-01-16T20:34:36.043Z,5.70
2018-01-16T20:37:03.646Z,5.70
2018-01-16T20:39:31.291Z,5.70
2018-01-16T20:41:58.857Z,5.70
2018-01-16T20:44:27.035Z,5.50
2018-01-16T20:46:55.436Z,5.80
2018-01-16T20:49:23.919Z,5.80
2018-01-16T20:51:52.297Z,5.80
2018-01-16T20:54:26.768Z,5.90
2018-01-16T20:59:40.481Z,5.90
2018-01-16T21:02:10.974Z,5.90
2018-01-16T21:04:38.866Z,6.10
2018-01-16T21:07:06.783Z,6.10
2018-01-16T21:09:34.452Z,6.10
2018-01-16T21:12:06.867Z,5.80
2018-01-16T21:14:34.646Z,5.80
2018-01-16T21:17:03.020Z,5.90
2018-01-16T21:19:31.407Z,5.90
2018-01-16T21:21:59.726Z,5.90
2018-01-16T21:24:27.359Z,5.90
2018-01-16T21:26:54.959Z,5.90
2018-01-16T21:29:22.584Z,6.00
2018-01-16T21:31:50.146Z,6.10
2018-01-16T21:34:17.752Z,6.20
2018-01-16T21:36:45.338Z,6.00
2018-01-16T21:39:12.940Z,6.00
2018-01-16T21:41:40.569Z,6.00
2018-01-16T21:44:08.135Z,6.20
2018-01-16T21:46:35.768Z,6.20
2018-01-16T21:49:03.462Z,6.20
2018-01-16T21:51:31.048Z,6.20
2018-01-16T21:53:58.651Z,6.30
2018-01-16T21:56:26.242Z,6.30
2018-01-16T21:58:53.817Z,6.30
2018-01-16T22:01:21.409Z,6.20
2018-01-16T22:03:50.809Z,6.30
2018-01-16T22:06:18.446Z,6.30
2018-01-16T22:08:46.005Z,6.40
2018-01-16T22:11:13.638Z,6.40
2018-01-16T22:13:41.240Z,6.40
2018-01-16T22:16:08.871Z,6.50
2018-01-16T22:18:36.478Z,6.40
2018-01-16T22:21:04.821Z,6.40
2018-01-16T22:23:32.390Z,6.40
2018-01-16T22:25:59.976Z,6.40
2018-01-16T22:28:27.545Z,6.40
2018-01-16T22:30:55.896Z,6.30
2018-01-16T22:33:23.460Z,6.30
2018-01-16T22:35:51.087Z,6.30
2018-01-16T22:38:18.645Z,6.30
2018-01-16T22:40:46.230Z,6.30
2018-01-16T22:43:13.794Z,6.30
2018-01-16T22:45:41.357Z,6.30
2018-01-16T22:48:08.937Z,6.20
2018-01-16T22:50:37.264Z,6.20
2018-01-16T22:53:04.851Z,6.20
2018-01-16T22:55:33.180Z,6.20
2018-01-16T22:58:01.529Z,6.20
2018-01-16T23:00:29.093Z,6.20
2018-01-16T23:02:56.677Z,6.30
2018-01-16T23:05:24.242Z,6.20
2018-01-16T23:07:51.833Z,6.30
2018-01-16T23:10:19.396Z,6.30
2018-01-16T23:12:46.986Z,6.20
2018-01-16T23:15:14.541Z,6.30
2018-01-16T23:17:42.944Z,6.30
2018-01-16T23:20:10.502Z,6.30
2018-01-16T23:22:38.081Z,6.30
2018-01-16T23:25:05.646Z,6.30
2018-01-16T23:27:33.237Z,6.20
2018-01-16T23:30:01.561Z,6.20
2018-01-16T23:32:29.145Z,6.10
2018-01-16T23:34:56.704Z,6.30
2018-01-16T23:37:24.293Z,6.20
2018-01-16T23:39:52.621Z,6.30
2018-01-16T23:42:20.201Z,6.20
2018-01-16T23:44:47.762Z,6.30
2018-01-16T23:47:15.351Z,6.20
2018-01-16T23:49:43.677Z,6.20
2018-01-16T23:52:11.258Z,6.20
2018-01-16T23:54:38.827Z,6.20
2018-01-16T23:57:06.413Z,6.10
2018-01-16T23:59:34.739Z,6.20
